Time;durP1;ratioP1;P1;durP2;ratioP2;P2;SDS_P1;SDS_P2;PMS_P1;PMS_P2;Temp;Humidity;BMP_temperature;BMP_pressure;BME280_temperature;BME280_humidity;BME280_pressure;Samples;Min_cycle;Max_cycle;Signal;HPM_P1;HPM_P2
2023/08/09 00:00:26;;;;;;;1.93;0.60;;;;;;;;;;5066352;28;20344;-65
2023/08/09 00:02:51;;;;;;;1.30;0.50;;;;;;;;;;5066728;28;20040;-67
2023/08/09 00:05:16;;;;;;;0.90;0.50;;;;;;;;;;5066220;28;20045;-68
2023/08/09 00:07:42;;;;;;;1.98;0.60;;;;;;;;;;5064097;28;20280;-66
2023/08/09 00:10:07;;;;;;;1.53;0.50;;;;;;;;;;5064396;28;20029;-63
2023/08/09 00:12:33;;;;;;;3.38;0.73;;;;;;;;;;5066403;28;20305;-66
2023/08/09 00:14:58;;;;;;;0.82;0.45;;;;;;;;;;5066005;28;20024;-66
2023/08/09 00:17:23;;;;;;;1.10;0.50;;;;;;;;;;5065925;28;20036;-66
2023/08/09 00:19:49;;;;;;;1.25;0.70;;;;;;;;;;5066615;28;20032;-65
2023/08/09 00:22:14;;;;;;;1.50;0.50;;;;;;;;;;5066461;28;20744;-64
2023/08/09 00:24:41;;;;;;;1.00;0.50;;;;;;;;;;5065186;28;20691;-66
2023/08/09 00:27:06;;;;;;;1.00;0.50;;;;;;;;;;5066108;28;20025;-68
2023/08/09 00:29:31;;;;;;;1.33;0.73;;;;;;;;;;5066480;28;20058;-67
2023/08/09 00:31:56;;;;;;;1.40;0.50;;;;;;;;;;5066325;28;20033;-67
2023/08/09 00:34:22;;;;;;;1.03;0.60;;;;;;;;;;5066078;28;20051;-66
2023/08/09 00:36:48;;;;;;;0.80;0.50;;;;;;;;;;5062321;28;20814;-65
2023/08/09 00:39:13;;;;;;;1.10;0.60;;;;;;;;;;5055446;28;20047;-66
2023/08/09 00:41:38;;;;;;;1.20;0.50;;;;;;;;;;5066171;28;20040;-65
2023/08/09 00:44:03;;;;;;;1.53;0.43;;;;;;;;;;5051028;28;20152;-67
2023/08/09 00:46:28;;;;;;;0.90;0.60;;;;;;;;;;5065055;28;20371;-67
2023/08/09 00:48:54;;;;;;;0.90;0.50;;;;;;;;;;5055798;22;20051;-63
2023/08/09 00:51:19;;;;;;;1.47;0.67;;;;;;;;;;5061071;28;20044;-61
2023/08/09 00:53:45;;;;;;;0.90;0.57;;;;;;;;;;5064268;28;20369;-62
2023/08/09 00:56:10;;;;;;;1.23;0.70;;;;;;;;;;5062829;28;20460;-62
2023/08/09 00:58:35;;;;;;;1.53;0.50;;;;;;;;;;5048784;28;20036;-63
2023/08/09 01:01:00;;;;;;;0.77;0.50;;;;;;;;;;5075752;28;20317;-64
2023/08/09 01:03:26;;;;;;;1.00;0.60;;;;;;;;;;5059040;28;20337;-61
2023/08/09 01:05:52;;;;;;;0.90;0.50;;;;;;;;;;5047673;28;20044;-63
2023/08/09 01:08:31;;;;;;;2.75;0.60;;;;;;;;;;5049767;28;20055;-60
2023/08/09 01:11:01;;;;;;;1.50;0.70;;;;;;;;;;5049781;28;20251;-60
2023/08/09 01:13:26;;;;;;;1.02;0.60;;;;;;;;;;5046634;28;20045;-61
2023/08/09 01:15:52;;;;;;;1.13;0.77;;;;;;;;;;5055871;28;20029;-62
2023/08/09 01:18:17;;;;;;;2.50;0.70;;;;;;;;;;5064344;28;20055;-61
2023/08/09 01:20:42;;;;;;;1.03;0.87;;;;;;;;;;5064614;28;20323;-64
2023/08/09 01:23:17;;;;;;;2.38;0.68;;;;;;;;;;5046297;28;20344;-64
2023/08/09 01:25:43;;;;;;;1.30;0.60;;;;;;;;;;5063780;28;20474;-63
2023/08/09 01:28:09;;;;;;;1.45;0.70;;;;;;;;;;5064253;28;20051;-63
2023/08/09 01:30:34;;;;;;;1.83;0.50;;;;;;;;;;5064897;28;20037;-61
2023/08/09 01:32:59;;;;;;;0.90;0.57;;;;;;;;;;5064506;28;20082;-62
2023/08/09 01:35:25;;;;;;;0.80;0.50;;;;;;;;;;5043531;28;20369;-63
2023/08/09 01:37:52;;;;;;;1.00;0.60;;;;;;;;;;5063993;28;20289;-62
2023/08/09 01:40:17;;;;;;;1.38;0.65;;;;;;;;;;5063147;28;20029;-63
2023/08/09 01:42:43;;;;;;;0.95;0.55;;;;;;;;;;5063893;28;20037;-63
2023/08/09 01:45:10;;;;;;;1.00;0.60;;;;;;;;;;5064951;28;20067;-63
2023/08/09 01:47:35;;;;;;;1.25;0.60;;;;;;;;;;5069327;28;20028;-62
2023/08/09 01:50:00;;;;;;;1.75;0.70;;;;;;;;;;5050941;28;20047;-63
2023/08/09 01:52:26;;;;;;;1.75;0.60;;;;;;;;;;5066665;28;20116;-63
2023/08/09 01:54:51;;;;;;;0.98;0.60;;;;;;;;;;5073720;28;20044;-62
2023/08/09 01:57:16;;;;;;;2.47;0.80;;;;;;;;;;5063974;28;20157;-63
2023/08/09 01:59:42;;;;;;;1.73;0.60;;;;;;;;;;5084809;28;20387;-64
2023/08/09 02:02:07;;;;;;;1.20;0.68;;;;;;;;;;5069491;28;20337;-63
2023/08/09 02:04:33;;;;;;;1.02;0.68;;;;;;;;;;5061192;28;20055;-63
2023/08/09 02:06:58;;;;;;;0.98;0.70;;;;;;;;;;5067036;28;20414;-62
2023/08/09 02:09:26;;;;;;;1.47;0.63;;;;;;;;;;5060301;28;20045;-63
2023/08/09 02:11:52;;;;;;;1.95;0.60;;;;;;;;;;5059285;28;20343;-62
2023/08/09 02:14:17;;;;;;;1.30;0.80;;;;;;;;;;5067443;28;20033;-62
2023/08/09 02:16:42;;;;;;;1.13;0.60;;;;;;;;;;5066056;28;20048;-62
2023/08/09 02:19:09;;;;;;;1.30;0.68;;;;;;;;;;5067232;28;20337;-62
2023/08/09 02:21:37;;;;;;;1.35;0.55;;;;;;;;;;5067136;28;20193;-63
2023/08/09 02:24:02;;;;;;;1.08;0.60;;;;;;;;;;5048548;28;20067;-64
2023/08/09 02:26:27;;;;;;;1.75;0.68;;;;;;;;;;5048451;28;20510;-62
2023/08/09 02:28:53;;;;;;;1.53;0.80;;;;;;;;;;5067224;28;20041;-63
2023/08/09 02:31:18;;;;;;;1.40;0.60;;;;;;;;;;5065352;28;20048;-61
2023/08/09 02:33:43;;;;;;;2.33;0.70;;;;;;;;;;5053921;28;20324;-62
2023/08/09 02:36:09;;;;;;;2.60;0.80;;;;;;;;;;5065653;28;20082;-62
2023/08/09 02:38:34;;;;;;;1.60;0.80;;;;;;;;;;5066867;28;20336;-63
2023/08/09 02:41:04;;;;;;;1.20;0.63;;;;;;;;;;5066718;28;20395;-61
2023/08/09 02:43:29;;;;;;;1.33;0.82;;;;;;;;;;5067352;28;20418;-62
2023/08/09 02:45:54;;;;;;;1.20;0.93;;;;;;;;;;5069168;28;20120;-63
2023/08/09 02:48:20;;;;;;;1.40;0.90;;;;;;;;;;5048430;28;20915;-62
2023/08/09 02:50:45;;;;;;;2.20;1.00;;;;;;;;;;5065329;28;20053;-63
2023/08/09 02:53:10;;;;;;;1.50;0.90;;;;;;;;;;5066426;28;20286;-62
2023/08/09 02:55:36;;;;;;;1.33;0.88;;;;;;;;;;5067237;28;20041;-60
2023/08/09 02:58:03;;;;;;;1.48;1.00;;;;;;;;;;5073476;28;20047;-61
2023/08/09 03:00:28;;;;;;;1.00;0.60;;;;;;;;;;5086567;28;20032;-63
2023/08/09 03:02:53;;;;;;;2.30;0.90;;;;;;;;;;5065681;28;20785;-62
2023/08/09 03:05:18;;;;;;;1.00;0.60;;;;;;;;;;5066204;28;20547;-61
2023/08/09 03:07:44;;;;;;;3.20;0.70;;;;;;;;;;5045961;28;20313;-63
2023/08/09 03:10:09;;;;;;;1.80;0.80;;;;;;;;;;5054545;28;20072;-63
2023/08/09 03:12:34;;;;;;;2.53;0.70;;;;;;;;;;5047892;28;20607;-63
2023/08/09 03:15:00;;;;;;;2.47;0.98;;;;;;;;;;5065347;28;20043;-61
2023/08/09 03:17:25;;;;;;;2.05;0.90;;;;;;;;;;5047354;28;20503;-63
2023/08/09 03:19:50;;;;;;;1.50;0.90;;;;;;;;;;5065775;28;20123;-64
2023/08/09 03:22:16;;;;;;;1.63;0.80;;;;;;;;;;5065904;28;20287;-64
2023/08/09 03:24:41;;;;;;;2.08;0.80;;;;;;;;;;5066030;28;20429;-63
2023/08/09 03:27:06;;;;;;;2.55;0.63;;;;;;;;;;5046980;28;20486;-63
2023/08/09 03:29:32;;;;;;;3.27;0.80;;;;;;;;;;5065352;28;20037;-63
2023/08/09 03:31:57;;;;;;;1.98;0.98;;;;;;;;;;5065019;28;20286;-62
2023/08/09 03:34:22;;;;;;;1.92;0.80;;;;;;;;;;5065978;28;20044;-62
2023/08/09 03:36:48;;;;;;;1.27;0.70;;;;;;;;;;5063292;28;20064;-61
2023/08/09 03:39:13;;;;;;;2.57;0.80;;;;;;;;;;5065097;28;20290;-62
2023/08/09 03:41:38;;;;;;;2.00;0.90;;;;;;;;;;5064972;28;20295;-62
2023/08/09 03:44:04;;;;;;;1.02;0.70;;;;;;;;;;5065362;28;20741;-62
2023/08/09 03:46:29;;;;;;;1.58;0.70;;;;;;;;;;5064781;28;20037;-61
2023/08/09 03:48:54;;;;;;;1.63;0.70;;;;;;;;;;5065222;28;20040;-60
2023/08/09 03:51:19;;;;;;;2.50;0.63;;;;;;;;;;5064332;28;20040;-61
2023/08/09 03:53:44;;;;;;;1.87;0.80;;;;;;;;;;5064801;28;20279;-61
2023/08/09 03:56:10;;;;;;;1.63;0.80;;;;;;;;;;5064450;28;20403;-62
2023/08/09 03:58:36;;;;;;;1.63;0.88;;;;;;;;;;5064727;28;20381;-63
2023/08/09 04:01:01;;;;;;;2.63;0.70;;;;;;;;;;5064106;28;20036;-62
2023/08/09 04:03:26;;;;;;;2.17;0.90;;;;;;;;;;5059086;28;20045;-62
2023/08/09 04:05:51;;;;;;;2.97;1.35;;;;;;;;;;5052340;28;20458;-63
2023/08/09 04:08:17;;;;;;;1.27;0.87;;;;;;;;;;5064460;28;20525;-62
2023/08/09 04:10:42;;;;;;;1.17;0.77;;;;;;;;;;5047446;28;20724;-61
2023/08/09 04:13:08;;;;;;;2.10;1.05;;;;;;;;;;5064186;28;20024;-63
2023/08/09 04:15:34;;;;;;;2.00;0.80;;;;;;;;;;5064489;28;20051;-62
2023/08/09 04:17:59;;;;;;;1.63;1.02;;;;;;;;;;5064145;28;20290;-63
2023/08/09 04:20:24;;;;;;;2.85;1.20;;;;;;;;;;5064083;28;20506;-61
2023/08/09 04:22:49;;;;;;;2.57;1.47;;;;;;;;;;5065441;28;20048;-62
2023/08/09 04:25:15;;;;;;;2.60;1.27;;;;;;;;;;5064301;28;20784;-62
2023/08/09 04:27:40;;;;;;;2.53;1.27;;;;;;;;;;5045612;28;20810;-61
2023/08/09 04:30:09;;;;;;;3.30;1.40;;;;;;;;;;5064420;28;20025;-61
2023/08/09 04:32:34;;;;;;;3.42;1.40;;;;;;;;;;5046800;28;20144;-64
2023/08/09 04:34:59;;;;;;;3.10;1.60;;;;;;;;;;5049827;28;20662;-62
2023/08/09 04:37:24;;;;;;;2.00;1.37;;;;;;;;;;5049276;28;20602;-62
2023/08/09 04:39:51;;;;;;;3.50;1.80;;;;;;;;;;5032029;28;20570;-62
2023/08/09 04:42:17;;;;;;;3.63;1.45;;;;;;;;;;5047789;28;20036;-62
2023/08/09 04:44:43;;;;;;;2.23;1.40;;;;;;;;;;5045396;28;20067;-63
2023/08/09 04:47:09;;;;;;;3.20;1.30;;;;;;;;;;5052376;28;20543;-62
2023/08/09 04:49:34;;;;;;;1.88;1.30;;;;;;;;;;5064143;28;20086;-61
2023/08/09 04:51:59;;;;;;;2.00;1.50;;;;;;;;;;5063488;28;20033;-62
2023/08/09 04:54:25;;;;;;;1.90;1.17;;;;;;;;;;5062665;28;20291;-64
2023/08/09 04:56:50;;;;;;;2.93;1.40;;;;;;;;;;5067670;28;20297;-60
2023/08/09 04:59:16;;;;;;;3.25;1.70;;;;;;;;;;5064011;28;20298;-61
2023/08/09 05:01:41;;;;;;;2.47;1.40;;;;;;;;;;5063867;28;20037;-61
2023/08/09 05:04:07;;;;;;;3.40;1.63;;;;;;;;;;5058713;28;20040;-61
2023/08/09 05:06:33;;;;;;;4.22;1.48;;;;;;;;;;5062860;28;20381;-64
2023/08/09 05:08:58;;;;;;;2.70;1.40;;;;;;;;;;5066185;28;20123;-62
2023/08/09 05:11:23;;;;;;;2.67;1.50;;;;;;;;;;5045123;28;20123;-65
2023/08/09 05:13:48;;;;;;;2.53;1.47;;;;;;;;;;5056152;28;20131;-62
2023/08/09 05:16:13;;;;;;;3.57;1.40;;;;;;;;;;5047331;28;20388;-61
2023/08/09 05:18:39;;;;;;;2.93;1.80;;;;;;;;;;5047820;28;20381;-61
2023/08/09 05:21:05;;;;;;;1.80;1.30;;;;;;;;;;5050483;28;20041;-61
2023/08/09 05:23:31;;;;;;;3.30;1.40;;;;;;;;;;5048291;28;20385;-61
2023/08/09 05:25:56;;;;;;;3.05;1.80;;;;;;;;;;5034531;28;20041;-61
2023/08/09 05:28:21;;;;;;;3.35;1.70;;;;;;;;;;5047858;28;20051;-61
2023/08/09 05:30:47;;;;;;;3.53;1.63;;;;;;;;;;5031570;28;20028;-62
2023/08/09 05:33:12;;;;;;;3.33;1.60;;;;;;;;;;5046699;28;20294;-63
2023/08/09 05:35:37;;;;;;;2.60;1.50;;;;;;;;;;5046622;28;20017;-64
2023/08/09 05:38:02;;;;;;;2.97;1.90;;;;;;;;;;5049654;28;20283;-64
2023/08/09 05:40:28;;;;;;;4.25;1.98;;;;;;;;;;5051756;28;20267;-63
2023/08/09 05:42:53;;;;;;;3.70;1.80;;;;;;;;;;5052245;28;20025;-67
2023/08/09 05:45:18;;;;;;;3.73;1.90;;;;;;;;;;5052598;28;20085;-62
2023/08/09 05:47:43;;;;;;;3.87;1.97;;;;;;;;;;5052942;28;20025;-63
2023/08/09 05:50:09;;;;;;;3.23;1.57;;;;;;;;;;5050188;28;20386;-67
2023/08/09 05:52:34;;;;;;;2.83;1.63;;;;;;;;;;5053008;28;20302;-64
2023/08/09 05:54:59;;;;;;;4.90;1.83;;;;;;;;;;5050836;28;20029;-62
2023/08/09 05:57:25;;;;;;;3.90;1.60;;;;;;;;;;5051631;28;20601;-61
2023/08/09 05:59:51;;;;;;;2.50;1.70;;;;;;;;;;5051156;28;20381;-62
2023/08/09 06:02:16;;;;;;;3.38;1.83;;;;;;;;;;5049711;28;20582;-64
2023/08/09 06:04:43;;;;;;;4.75;2.00;;;;;;;;;;5032995;28;20040;-65
2023/08/09 06:07:08;;;;;;;3.53;1.90;;;;;;;;;;5052850;28;20024;-65
2023/08/09 06:09:33;;;;;;;3.77;1.97;;;;;;;;;;5049174;28;20659;-62
2023/08/09 06:11:59;;;;;;;3.53;2.08;;;;;;;;;;5049958;28;21156;-65
2023/08/09 06:14:24;;;;;;;4.20;2.07;;;;;;;;;;5050220;28;20133;-65
2023/08/09 06:16:49;;;;;;;3.43;2.20;;;;;;;;;;5052223;28;21292;-64
2023/08/09 06:19:14;;;;;;;3.13;1.90;;;;;;;;;;5052113;28;20275;-65
2023/08/09 06:21:40;;;;;;;3.40;1.88;;;;;;;;;;5051102;28;20326;-64
2023/08/09 06:24:06;;;;;;;3.53;2.13;;;;;;;;;;5051400;28;20612;-61
2023/08/09 06:26:34;;;;;;;4.63;2.20;;;;;;;;;;5050901;28;20024;-63
2023/08/09 06:29:00;;;;;;;4.45;1.88;;;;;;;;;;5051993;28;20544;-64
2023/08/09 06:31:25;;;;;;;5.10;2.05;;;;;;;;;;5039335;28;20020;-62
2023/08/09 06:33:51;;;;;;;3.37;2.00;;;;;;;;;;5049438;28;20422;-60
2023/08/09 06:36:17;;;;;;;4.30;1.75;;;;;;;;;;5049880;28;20153;-60
2023/08/09 06:38:42;;;;;;;3.63;1.75;;;;;;;;;;5049359;28;20040;-61
2023/08/09 06:41:07;;;;;;;3.30;1.90;;;;;;;;;;5036354;28;20032;-61
2023/08/09 06:43:33;;;;;;;3.15;2.00;;;;;;;;;;5049735;28;20125;-61
2023/08/09 06:45:59;;;;;;;3.50;2.10;;;;;;;;;;5051568;28;20138;-63
2023/08/09 06:48:25;;;;;;;4.10;1.85;;;;;;;;;;5049162;28;20083;-62
2023/08/09 06:50:50;;;;;;;4.47;1.95;;;;;;;;;;5050297;28;20216;-61
2023/08/09 06:53:16;;;;;;;5.32;2.53;;;;;;;;;;5042705;28;20337;-61
2023/08/09 06:55:41;;;;;;;2.85;1.80;;;;;;;;;;5050603;28;20053;-62
2023/08/09 06:58:06;;;;;;;5.77;1.97;;;;;;;;;;5050377;28;20067;-62
2023/08/09 07:00:31;;;;;;;6.22;2.30;;;;;;;;;;5048865;28;20971;-63
2023/08/09 07:02:57;;;;;;;3.63;1.90;;;;;;;;;;5049067;28;21817;-63
2023/08/09 07:05:22;;;;;;;2.33;1.70;;;;;;;;;;5047204;28;20303;-63
2023/08/09 07:07:48;;;;;;;4.40;1.77;;;;;;;;;;5055460;28;20036;-63
2023/08/09 07:10:14;;;;;;;3.42;2.50;;;;;;;;;;5055581;28;20134;-64
2023/08/09 07:12:39;;;;;;;3.95;2.00;;;;;;;;;;5065447;28;20043;-64
2023/08/09 07:15:08;;;;;;;4.93;2.07;;;;;;;;;;5063425;28;20036;-64
2023/08/09 07:17:34;;;;;;;4.82;2.50;;;;;;;;;;5065034;28;20282;-61
2023/08/09 07:19:59;;;;;;;5.03;2.25;;;;;;;;;;5065243;28;20567;-62
2023/08/09 07:22:24;;;;;;;2.38;1.70;;;;;;;;;;5066210;28;20541;-67
2023/08/09 07:24:50;;;;;;;4.00;2.37;;;;;;;;;;5053394;28;20053;-64
2023/08/09 07:27:15;;;;;;;5.07;2.10;;;;;;;;;;5053682;28;20036;-61
2023/08/09 07:29:40;;;;;;;7.80;2.17;;;;;;;;;;5046699;28;20098;-60
2023/08/09 07:32:06;;;;;;;3.55;2.13;;;;;;;;;;5029443;28;20344;-64
2023/08/09 07:34:31;;;;;;;3.85;2.15;;;;;;;;;;5048627;28;20037;-61
2023/08/09 07:36:57;;;;;;;5.57;2.22;;;;;;;;;;5056650;28;20101;-61
2023/08/09 07:39:25;;;;;;;2.57;1.90;;;;;;;;;;5054859;28;20025;-59
2023/08/09 07:41:50;;;;;;;2.65;1.90;;;;;;;;;;5054927;28;20060;-61
2023/08/09 07:44:15;;;;;;;3.93;2.27;;;;;;;;;;5048791;28;20711;-59
2023/08/09 07:46:40;;;;;;;3.13;1.97;;;;;;;;;;5045790;28;20513;-61
2023/08/09 07:49:05;;;;;;;4.23;2.10;;;;;;;;;;5045178;28;20299;-60
2023/08/09 07:51:31;;;;;;;2.50;1.83;;;;;;;;;;5049320;28;20345;-62
2023/08/09 07:53:56;;;;;;;3.00;2.00;;;;;;;;;;5039330;28;20378;-60
2023/08/09 07:56:22;;;;;;;3.30;1.85;;;;;;;;;;5046481;28;20143;-61
2023/08/09 07:58:47;;;;;;;3.08;2.13;;;;;;;;;;5046435;28;20061;-61
2023/08/09 08:01:12;;;;;;;2.65;1.80;;;;;;;;;;5046592;28;20048;-61
2023/08/09 08:03:39;;;;;;;3.60;1.80;;;;;;;;;;5054859;28;20032;-62
2023/08/09 08:06:04;;;;;;;3.33;1.80;;;;;;;;;;5050949;28;20092;-66
2023/08/09 08:08:30;;;;;;;2.45;1.75;;;;;;;;;;5035750;28;20125;-60
2023/08/09 08:10:55;;;;;;;3.55;1.88;;;;;;;;;;5040010;28;20161;-60
2023/08/09 08:13:20;;;;;;;2.70;1.70;;;;;;;;;;5050347;28;20036;-61
2023/08/09 08:15:45;;;;;;;3.40;1.97;;;;;;;;;;5051398;28;20042;-62
2023/08/09 08:18:11;;;;;;;3.10;1.88;;;;;;;;;;5057390;28;20315;-62
2023/08/09 08:20:36;;;;;;;3.37;1.83;;;;;;;;;;5076068;28;20036;-61
2023/08/09 08:23:01;;;;;;;4.23;2.10;;;;;;;;;;5045753;28;20275;-62
2023/08/09 08:25:26;;;;;;;4.13;2.05;;;;;;;;;;5064619;28;20390;-63
2023/08/09 08:27:52;;;;;;;3.13;1.80;;;;;;;;;;5043303;28;20390;-61
2023/08/09 08:30:18;;;;;;;4.07;1.70;;;;;;;;;;5063056;28;20082;-64
2023/08/09 08:32:43;;;;;;;2.58;1.90;;;;;;;;;;5061950;28;20135;-62
2023/08/09 08:35:11;;;;;;;2.22;1.70;;;;;;;;;;5068367;28;20489;-63
2023/08/09 08:37:38;;;;;;;3.35;1.88;;;;;;;;;;5080807;28;20024;-60
2023/08/09 08:40:08;;;;;;;3.00;1.52;;;;;;;;;;5045991;28;20043;-62
2023/08/09 08:42:33;;;;;;;2.97;2.10;;;;;;;;;;5062509;28;20391;-60
2023/08/09 08:45:00;;;;;;;3.78;2.03;;;;;;;;;;5060905;28;20183;-60
2023/08/09 08:47:25;;;;;;;2.88;1.65;;;;;;;;;;5062840;28;20128;-59
2023/08/09 08:49:51;;;;;;;3.17;1.63;;;;;;;;;;5062153;28;20978;-61
2023/08/09 08:52:16;;;;;;;2.92;1.70;;;;;;;;;;5062108;28;20067;-61
2023/08/09 08:54:42;;;;;;;2.80;1.52;;;;;;;;;;5048736;28;20032;-61
2023/08/09 08:57:07;;;;;;;2.60;1.77;;;;;;;;;;5063149;28;20028;-64
2023/08/09 08:59:34;;;;;;;2.55;1.73;;;;;;;;;;5063288;28;20298;-62
2023/08/09 09:01:59;;;;;;;2.60;1.65;;;;;;;;;;5054518;28;20029;-61
2023/08/09 09:04:24;;;;;;;3.03;1.83;;;;;;;;;;5050492;28;20067;-60
2023/08/09 09:06:50;;;;;;;2.17;1.80;;;;;;;;;;5047198;28;20542;-61
2023/08/09 09:09:15;;;;;;;2.28;1.80;;;;;;;;;;5052104;28;20385;-62
2023/08/09 09:11:40;;;;;;;3.47;1.70;;;;;;;;;;5043769;28;20143;-61
2023/08/09 09:14:12;;;;;;;2.95;1.73;;;;;;;;;;5049933;28;20334;-60
2023/08/09 09:16:37;;;;;;;2.58;1.77;;;;;;;;;;5051178;28;20041;-62
2023/08/09 09:19:03;;;;;;;2.80;1.50;;;;;;;;;;5034585;28;20787;-61
2023/08/09 09:21:30;;;;;;;3.45;1.67;;;;;;;;;;5050348;28;20482;-62
2023/08/09 09:23:55;;;;;;;3.63;1.60;;;;;;;;;;5052043;28;20048;-60
2023/08/09 09:26:20;;;;;;;2.25;1.65;;;;;;;;;;5051486;28;20040;-60
2023/08/09 09:28:47;;;;;;;1.80;1.53;;;;;;;;;;5050067;28;20036;-61
2023/08/09 09:31:13;;;;;;;2.47;1.77;;;;;;;;;;5056664;28;20348;-62
2023/08/09 09:33:43;;;;;;;3.00;1.50;;;;;;;;;;5057067;28;20036;-61
2023/08/09 09:36:11;;;;;;;2.10;1.50;;;;;;;;;;5052592;28;20037;-61
2023/08/09 09:38:36;;;;;;;2.00;1.52;;;;;;;;;;5052458;28;20033;-62
2023/08/09 09:41:02;;;;;;;1.85;1.27;;;;;;;;;;5050450;28;20125;-62
2023/08/09 09:43:30;;;;;;;2.20;1.67;;;;;;;;;;5050317;28;20036;-62
2023/08/09 09:45:55;;;;;;;2.40;1.65;;;;;;;;;;5050332;28;20052;-61
2023/08/09 09:48:21;;;;;;;3.23;1.63;;;;;;;;;;5034508;28;20044;-60
2023/08/09 09:50:46;;;;;;;2.45;1.58;;;;;;;;;;5052218;28;20291;-60
2023/08/09 09:53:13;;;;;;;1.77;1.50;;;;;;;;;;5050760;28;20032;-59
2023/08/09 09:55:38;;;;;;;1.67;1.30;;;;;;;;;;5047070;28;20132;-61
2023/08/09 09:58:04;;;;;;;2.53;1.60;;;;;;;;;;5051737;28;20465;-60
2023/08/09 10:00:31;;;;;;;2.92;1.40;;;;;;;;;;5049728;28;20298;-60
2023/08/09 10:02:57;;;;;;;1.40;1.20;;;;;;;;;;5052221;28;20041;-60
2023/08/09 10:05:23;;;;;;;2.33;1.73;;;;;;;;;;5032607;28;20057;-60
2023/08/09 10:07:49;;;;;;;2.38;1.45;;;;;;;;;;5051735;28;20454;-61
2023/08/09 10:10:14;;;;;;;3.40;1.63;;;;;;;;;;5050994;28;20033;-62
2023/08/09 10:12:59;;;;;;;1.67;1.38;;;;;;;;;;5057234;28;20462;-62
2023/08/09 10:15:29;;;;;;;2.17;1.40;;;;;;;;;;5036935;28;20392;-64
2023/08/09 10:17:57;;;;;;;2.45;1.45;;;;;;;;;;5032472;28;20036;-65
2023/08/09 10:20:22;;;;;;;2.13;1.40;;;;;;;;;;5058635;28;20430;-62
2023/08/09 10:22:47;;;;;;;4.07;1.80;;;;;;;;;;5054051;28;20037;-62
2023/08/09 10:25:13;;;;;;;2.25;1.45;;;;;;;;;;5055548;28;20130;-65
2023/08/09 10:27:50;;;;;;;1.70;1.30;;;;;;;;;;5058437;28;20461;-61
2023/08/09 10:30:23;;;;;;;1.80;1.30;;;;;;;;;;5056097;28;20037;-64
2023/08/09 10:32:54;;;;;;;2.08;1.30;;;;;;;;;;5058077;28;20033;-61
2023/08/09 10:35:20;;;;;;;2.88;1.48;;;;;;;;;;5058142;28;20033;-62
2023/08/09 10:37:45;;;;;;;1.80;1.40;;;;;;;;;;5058299;28;20491;-64
2023/08/09 10:40:11;;;;;;;3.17;1.30;;;;;;;;;;5061291;28;20028;-62
2023/08/09 10:42:37;;;;;;;2.50;1.60;;;;;;;;;;5054565;28;20051;-60
2023/08/09 10:45:03;;;;;;;1.93;1.50;;;;;;;;;;5036901;28;20067;-61
2023/08/09 10:47:28;;;;;;;1.92;1.60;;;;;;;;;;5049549;28;20274;-61
2023/08/09 10:49:53;;;;;;;1.63;1.17;;;;;;;;;;5051888;28;20111;-62
2023/08/09 10:52:19;;;;;;;2.70;1.52;;;;;;;;;;5052914;28;20318;-62
2023/08/09 10:54:45;;;;;;;1.33;1.02;;;;;;;;;;5051194;28;20479;-63
2023/08/09 10:57:11;;;;;;;3.10;1.65;;;;;;;;;;5051376;28;20036;-62
2023/08/09 10:59:38;;;;;;;1.98;1.40;;;;;;;;;;5051410;28;20066;-61
2023/08/09 11:02:03;;;;;;;2.80;1.45;;;;;;;;;;5051843;28;20698;-60
2023/08/09 11:04:28;;;;;;;2.65;1.40;;;;;;;;;;5038641;28;20036;-64
2023/08/09 11:06:54;;;;;;;1.43;1.10;;;;;;;;;;5050920;28;20078;-63
2023/08/09 11:09:21;;;;;;;1.77;1.10;;;;;;;;;;5050962;28;20347;-65
2023/08/09 11:11:46;;;;;;;1.70;1.40;;;;;;;;;;5051301;28;20044;-63
2023/08/09 11:14:13;;;;;;;1.95;1.60;;;;;;;;;;5051029;28;20017;-64
2023/08/09 11:16:39;;;;;;;2.00;1.40;;;;;;;;;;5062524;28;20034;-63
2023/08/09 11:19:07;;;;;;;2.00;1.67;;;;;;;;;;5065356;28;20650;-65
2023/08/09 11:21:46;;;;;;;2.90;1.50;;;;;;;;;;5066360;28;20036;-62
2023/08/09 11:24:11;;;;;;;1.80;1.52;;;;;;;;;;5058977;28;20056;-61
2023/08/09 11:26:37;;;;;;;2.30;1.48;;;;;;;;;;5049193;28;20033;-65
2023/08/09 11:29:03;;;;;;;1.60;1.20;;;;;;;;;;5045193;28;20087;-61
2023/08/09 11:31:30;;;;;;;2.63;1.75;;;;;;;;;;5036551;28;20032;-63
2023/08/09 11:33:56;;;;;;;2.30;1.30;;;;;;;;;;5066096;28;20064;-62
2023/08/09 11:36:21;;;;;;;1.98;1.50;;;;;;;;;;5065754;28;20478;-60
2023/08/09 11:38:46;;;;;;;2.57;1.37;;;;;;;;;;5047615;28;20024;-62
2023/08/09 11:41:14;;;;;;;1.42;1.17;;;;;;;;;;5065819;28;20033;-64
2023/08/09 11:43:40;;;;;;;1.70;1.25;;;;;;;;;;5066700;28;20051;-62
2023/08/09 11:46:05;;;;;;;1.90;1.33;;;;;;;;;;5065387;28;20091;-63
2023/08/09 11:48:33;;;;;;;2.60;1.47;;;;;;;;;;5066308;28;20052;-61
2023/08/09 11:51:02;;;;;;;1.60;1.23;;;;;;;;;;5047423;28;20510;-62
2023/08/09 11:53:27;;;;;;;1.85;1.40;;;;;;;;;;5065687;28;20086;-62
2023/08/09 11:55:57;;;;;;;2.87;1.43;;;;;;;;;;5066274;28;20020;-63
2023/08/09 11:58:22;;;;;;;1.73;1.10;;;;;;;;;;5066007;28;20267;-65
2023/08/09 12:00:48;;;;;;;1.90;1.10;;;;;;;;;;5046156;28;20110;-63
2023/08/09 12:03:13;;;;;;;1.90;1.13;;;;;;;;;;5056636;28;20033;-61
2023/08/09 12:05:41;;;;;;;2.22;1.13;;;;;;;;;;5057789;28;20306;-60
2023/08/09 12:08:06;;;;;;;1.52;1.10;;;;;;;;;;5049131;28;20115;-61
2023/08/09 12:10:31;;;;;;;2.50;1.20;;;;;;;;;;5062907;28;20137;-62
2023/08/09 12:12:57;;;;;;;2.38;1.23;;;;;;;;;;5045057;28;20033;-59
2023/08/09 12:15:23;;;;;;;1.25;1.00;;;;;;;;;;5062595;28;20028;-61
2023/08/09 12:17:49;;;;;;;2.00;1.25;;;;;;;;;;5060247;28;20039;-61
2023/08/09 12:20:14;;;;;;;1.30;0.90;;;;;;;;;;5060901;28;20033;-62
2023/08/09 12:22:39;;;;;;;1.97;1.20;;;;;;;;;;5049782;28;20041;-62
2023/08/09 12:25:05;;;;;;;1.73;1.20;;;;;;;;;;5048220;28;20334;-61
2023/08/09 12:27:30;;;;;;;2.88;1.00;;;;;;;;;;5046113;28;20037;-61
2023/08/09 12:29:56;;;;;;;2.33;1.30;;;;;;;;;;5049025;28;20079;-60
2023/08/09 12:32:21;;;;;;;2.33;1.33;;;;;;;;;;5052717;28;20152;-63
2023/08/09 12:34:49;;;;;;;1.83;1.30;;;;;;;;;;5059235;28;20035;-62
2023/08/09 12:37:15;;;;;;;1.70;1.30;;;;;;;;;;5061566;28;20036;-62
2023/08/09 12:39:40;;;;;;;2.30;1.10;;;;;;;;;;5042818;28;20552;-60
2023/08/09 12:42:05;;;;;;;2.43;1.20;;;;;;;;;;5061240;28;20028;-61
2023/08/09 12:44:32;;;;;;;2.70;1.20;;;;;;;;;;5058928;28;20282;-64
2023/08/09 12:46:57;;;;;;;1.35;1.00;;;;;;;;;;5059772;28;20043;-61
2023/08/09 12:49:22;;;;;;;1.52;1.20;;;;;;;;;;5061855;28;20033;-60
2023/08/09 12:51:48;;;;;;;1.52;0.90;;;;;;;;;;5060327;28;20051;-64
2023/08/09 12:54:13;;;;;;;2.75;1.30;;;;;;;;;;5060224;28;20068;-62
2023/08/09 12:56:38;;;;;;;1.70;1.10;;;;;;;;;;5062623;28;20123;-62
2023/08/09 12:59:04;;;;;;;1.80;1.10;;;;;;;;;;5062493;28;20510;-64
2023/08/09 13:01:30;;;;;;;2.20;1.20;;;;;;;;;;5063294;28;20406;-63
2023/08/09 13:03:55;;;;;;;1.42;1.00;;;;;;;;;;5060946;28;20557;-64
2023/08/09 13:06:20;;;;;;;1.30;1.07;;;;;;;;;;5062625;28;20053;-63
2023/08/09 13:08:46;;;;;;;2.70;1.30;;;;;;;;;;5063206;28;20884;-62
2023/08/09 13:11:11;;;;;;;1.63;1.05;;;;;;;;;;5063273;28;20771;-63
2023/08/09 13:13:37;;;;;;;2.90;1.08;;;;;;;;;;5046186;28;20414;-62
2023/08/09 13:16:04;;;;;;;1.95;1.00;;;;;;;;;;5063277;28;20040;-61
2023/08/09 13:18:29;;;;;;;1.83;1.10;;;;;;;;;;5063560;28;20024;-65
2023/08/09 13:20:54;;;;;;;1.53;1.10;;;;;;;;;;5063780;28;20512;-64
2023/08/09 13:23:19;;;;;;;1.90;1.00;;;;;;;;;;5063909;28;20278;-64
2023/08/09 13:25:45;;;;;;;1.80;1.00;;;;;;;;;;5045350;28;20084;-63
2023/08/09 13:28:10;;;;;;;2.30;0.98;;;;;;;;;;5062764;28;20178;-64
2023/08/09 13:30:35;;;;;;;2.77;1.30;;;;;;;;;;5044996;28;20563;-62
2023/08/09 13:33:01;;;;;;;2.28;1.30;;;;;;;;;;5063391;28;20470;-62
2023/08/09 13:35:26;;;;;;;2.88;1.13;;;;;;;;;;5062808;28;20116;-62
2023/08/09 13:37:51;;;;;;;1.70;1.00;;;;;;;;;;5063103;28;20494;-62
2023/08/09 13:40:17;;;;;;;3.40;0.90;;;;;;;;;;5063771;28;20339;-63
2023/08/09 13:42:43;;;;;;;1.50;1.10;;;;;;;;;;5062947;28;20040;-63
2023/08/09 13:45:08;;;;;;;1.58;1.30;;;;;;;;;;5065215;28;20369;-62
2023/08/09 13:47:34;;;;;;;6.38;1.30;;;;;;;;;;5075157;28;20468;-62
2023/08/09 13:49:59;;;;;;;1.50;0.90;;;;;;;;;;5063177;28;20054;-62
2023/08/09 13:52:25;;;;;;;2.17;1.00;;;;;;;;;;5063242;28;20040;-62
2023/08/09 13:54:50;;;;;;;1.95;1.10;;;;;;;;;;5044514;28;20286;-62
2023/08/09 13:57:16;;;;;;;1.98;1.00;;;;;;;;;;5062369;28;20029;-62
2023/08/09 13:59:41;;;;;;;1.85;1.10;;;;;;;;;;5066036;28;20094;-62
2023/08/09 14:02:07;;;;;;;2.53;1.00;;;;;;;;;;5066459;28;20416;-65
2023/08/09 14:04:32;;;;;;;1.60;1.15;;;;;;;;;;5061028;28;20454;-63
2023/08/09 14:06:59;;;;;;;1.80;1.00;;;;;;;;;;5066175;28;20043;-63
2023/08/09 14:09:25;;;;;;;1.45;1.05;;;;;;;;;;5066746;28;20434;-63
2023/08/09 14:11:50;;;;;;;2.10;1.00;;;;;;;;;;5066627;28;20041;-64
2023/08/09 14:14:16;;;;;;;1.77;1.02;;;;;;;;;;5065989;28;20041;-63
2023/08/09 14:16:42;;;;;;;1.50;1.10;;;;;;;;;;5066455;28;20107;-61
2023/08/09 14:19:08;;;;;;;1.63;1.20;;;;;;;;;;5065059;28;22955;-62
2023/08/09 14:21:33;;;;;;;1.73;0.98;;;;;;;;;;5031800;28;20163;-66
2023/08/09 14:23:58;;;;;;;1.63;1.20;;;;;;;;;;5066856;28;20139;-69
2023/08/09 14:26:23;;;;;;;2.08;1.08;;;;;;;;;;5067419;28;20664;-70
2023/08/09 14:28:49;;;;;;;1.58;0.98;;;;;;;;;;5069311;28;20093;-66
2023/08/09 14:31:14;;;;;;;2.50;1.20;;;;;;;;;;5050605;28;20086;-63
2023/08/09 14:33:39;;;;;;;1.50;1.20;;;;;;;;;;5062585;28;20283;-63